createdAt,value
2018-11-20T00:00:58.700Z,6.28
2018-11-20T00:02:08.247Z,6.31
2018-11-20T00:03:18.212Z,6.26
2018-11-20T00:04:27.757Z,6.25
2018-11-20T00:05:37.559Z,6.31
2018-11-20T00:06:47.373Z,6.29
2018-11-20T00:07:57.183Z,6.34
2018-11-20T00:09:07.301Z,6.28
2018-11-20T00:10:17.391Z,6.33
2018-11-20T00:11:27.195Z,6.31
2018-11-20T00:12:36.743Z,6.33
2018-11-20T00:13:46.813Z,6.34
2018-11-20T00:14:56.335Z,6.42
2018-11-20T00:16:05.869Z,6.33
2018-11-20T00:17:15.675Z,6.33
2018-11-20T00:18:25.731Z,6.25
2018-11-20T00:19:35.539Z,6.29
2018-11-20T00:20:45.605Z,6.26
2018-11-20T00:21:55.160Z,6.29
2018-11-20T00:23:04.960Z,6.29
2018-11-20T00:24:14.508Z,6.24
2018-11-20T00:25:24.597Z,6.31
2018-11-20T00:26:34.162Z,6.31
2018-11-20T00:27:44.308Z,6.25
2018-11-20T00:28:53.845Z,6.29
2018-11-20T00:30:03.899Z,6.26
2018-11-20T00:31:13.968Z,6.18
2018-11-20T00:32:23.820Z,6.18
2018-11-20T00:33:33.865Z,6.33
2018-11-20T00:34:43.444Z,6.24
2018-11-20T00:35:53.524Z,6.2
2018-11-20T00:37:03.341Z,6.25
2018-11-20T00:38:13.138Z,6.33
2018-11-20T00:39:22.941Z,6.18
2018-11-20T00:40:33.003Z,6.25
2018-11-20T00:41:42.799Z,6.24
2018-11-20T00:42:52.863Z,6.31
2018-11-20T00:44:03.982Z,6.36
2018-11-20T00:45:13.797Z,6.31
2018-11-20T00:46:23.611Z,6.24
2018-11-20T00:47:33.445Z,6.25
2018-11-20T00:48:43.254Z,6.24
2018-11-20T00:49:52.795Z,6.26
2018-11-20T00:51:02.066Z,6.2
2018-11-20T00:52:12.139Z,6.18
2018-11-20T00:53:22.202Z,6.18
2018-11-20T00:54:32.021Z,6.28
2018-11-20T00:55:41.826Z,6.2
2018-11-20T00:56:51.362Z,6.24
2018-11-20T00:58:00.905Z,6.36
2018-11-20T00:59:10.958Z,6.28
2018-11-20T01:00:20.479Z,6.25
2018-11-20T01:01:30.631Z,6.25
2018-11-20T01:02:40.679Z,6.29
2018-11-20T01:03:52.220Z,6.26
2018-11-20T01:05:03.449Z,6.26
2018-11-20T01:06:13.579Z,6.25
2018-11-20T01:07:23.366Z,6.26
2018-11-20T01:08:33.157Z,6.21
2018-11-20T01:09:43.231Z,6.25
2018-11-20T01:10:53.039Z,6.26
2018-11-20T01:12:02.834Z,6.24
2018-11-20T01:13:12.793Z,6.33
2018-11-20T01:14:22.320Z,6.31
2018-11-20T01:15:31.853Z,6.29
2018-11-20T01:16:41.648Z,6.26
2018-11-20T01:17:51.447Z,6.26
2018-11-20T01:19:01.565Z,6.26
2018-11-20T01:20:11.104Z,6.2
2018-11-20T01:21:20.906Z,6.18
2018-11-20T01:22:30.988Z,6.15
2018-11-20T01:23:40.799Z,6.25
2018-11-20T01:24:50.902Z,6.13
2018-11-20T01:26:00.437Z,6.21
2018-11-20T01:27:10.237Z,6.06
2018-11-20T01:28:19.555Z,6.17
2018-11-20T01:29:29.349Z,6.09
2018-11-20T01:30:39.410Z,6.24
2018-11-20T01:31:49.210Z,6.14
2018-11-20T01:32:58.485Z,6.21
2018-11-20T01:34:08.852Z,6.24
2018-11-20T01:35:18.934Z,6.13
2018-11-20T01:36:28.774Z,6.14
2018-11-20T01:37:38.832Z,6.25
2018-11-20T01:38:48.954Z,6.17
2018-11-20T01:39:58.746Z,6.15
2018-11-20T01:41:08.563Z,6.1
2018-11-20T01:42:17.898Z,6.2
2018-11-20T01:43:27.717Z,6.1
2018-11-20T01:44:37.765Z,6.09
2018-11-20T01:45:46.779Z,6.05
2018-11-20T01:46:56.581Z,5.95
2018-11-20T01:48:06.387Z,6.06
2018-11-20T01:49:16.193Z,6.15
2018-11-20T01:50:25.998Z,6.1
2018-11-20T01:51:36.003Z,6.07
2018-11-20T01:52:46.071Z,6.07
2018-11-20T01:53:55.879Z,6.09
2018-11-20T01:55:07.668Z,5.99
2018-11-20T01:56:17.469Z,6.05
2018-11-20T01:57:27.423Z,6.05
2018-11-20T01:58:37.576Z,6.1
2018-11-20T01:59:47.360Z,6.13
2018-11-20T02:00:57.438Z,5.99
2018-11-20T02:02:07.503Z,6.1
2018-11-20T02:03:17.047Z,6.07
2018-11-20T02:04:27.102Z,6.13
2018-11-20T02:05:36.988Z,6.09
2018-11-20T02:06:46.521Z,6.06
2018-11-20T02:07:56.339Z,6.07
2018-11-20T02:09:06.138Z,6.07
2018-11-20T02:10:15.687Z,6.05
2018-11-20T02:11:25.539Z,6.03
2018-11-20T02:12:35.393Z,5.99
2018-11-20T02:13:45.221Z,6.02
2018-11-20T02:14:55.291Z,6
2018-11-20T02:16:05.862Z,6.02
2018-11-20T02:17:15.415Z,6.03
2018-11-20T02:18:25.273Z,6.06
2018-11-20T02:19:34.804Z,5.96
2018-11-20T02:20:44.330Z,6.03
2018-11-20T02:21:54.409Z,5.96
2018-11-20T02:23:04.475Z,6.02
2018-11-20T02:24:14.558Z,5.98
2018-11-20T02:25:24.377Z,6.03
2018-11-20T02:26:34.430Z,6.05
2018-11-20T02:27:44.501Z,6.05
2018-11-20T02:28:54.354Z,6.02
2018-11-20T02:30:04.398Z,6.05
2018-11-20T02:31:14.477Z,6.15
2018-11-20T02:32:24.595Z,6.06
2018-11-20T02:33:33.952Z,6.05
2018-11-20T02:34:44.002Z,6.06
2018-11-20T02:35:53.787Z,6.13
2018-11-20T02:37:03.856Z,6.03
2018-11-20T02:38:13.646Z,6.07
2018-11-20T02:39:23.465Z,6.13
2018-11-20T02:40:33.309Z,6.1
2018-11-20T02:41:43.101Z,6.13
2018-11-20T02:42:53.150Z,6.06
2018-11-20T02:44:03.201Z,6.06
2018-11-20T02:45:13.254Z,6.13
2018-11-20T02:46:23.055Z,6.17
2018-11-20T02:47:32.879Z,6.05
2018-11-20T02:48:42.680Z,6.15
2018-11-20T02:49:52.768Z,6.09
2018-11-20T02:51:05.328Z,6.09
2018-11-20T02:52:15.176Z,6.06
2018-11-20T02:53:24.992Z,6.05
2018-11-20T02:54:35.070Z,6.21
2018-11-20T02:55:45.115Z,6.13
2018-11-20T02:56:54.923Z,6.15
2018-11-20T02:58:05.381Z,6.21
2018-11-20T02:59:14.907Z,6.1
2018-11-20T03:00:24.437Z,6.1
2018-11-20T03:01:34.248Z,6.18
2018-11-20T03:02:44.046Z,6.2
2018-11-20T03:34:59.970Z,4.18
2018-11-20T03:36:10.288Z,4.29
2018-11-20T03:37:20.813Z,4.15
2018-11-20T03:38:30.866Z,4.14
2018-11-20T03:39:40.970Z,4.39
2018-11-20T03:40:50.912Z,4.32
2018-11-20T03:42:00.967Z,4.36
2018-11-20T03:43:11.025Z,4.51
2018-11-20T03:44:20.825Z,4.64
2018-11-20T03:45:30.873Z,4.72
2018-11-20T03:46:40.937Z,4.78
2018-11-20T03:47:51.273Z,5
2018-11-20T03:49:01.735Z,5.02
2018-11-20T03:50:11.803Z,5.16
2018-11-20T03:51:21.868Z,5.24
2018-11-20T03:52:31.671Z,5.39
2018-11-20T03:53:41.730Z,5.41
2018-11-20T03:54:51.526Z,5.45
2018-11-20T03:56:01.590Z,5.57
2018-11-20T03:57:11.651Z,5.6
2018-11-20T03:58:21.507Z,5.52
2018-11-20T03:59:31.566Z,5.67
2018-11-20T04:00:41.352Z,5.7
2018-11-20T04:01:51.183Z,5.7
2018-11-20T04:03:02.483Z,5.66
2018-11-20T04:04:12.547Z,5.77
2018-11-20T04:05:22.351Z,5.78
2018-11-20T04:06:32.409Z,5.88
2018-11-20T04:07:41.693Z,5.82
2018-11-20T04:08:50.708Z,5.88
2018-11-20T04:10:00.569Z,5.95
2018-11-20T04:11:10.614Z,5.91
2018-11-20T04:12:20.652Z,5.85
2018-11-20T04:13:30.176Z,6.02
2018-11-20T04:14:39.704Z,5.91
2018-11-20T04:15:49.516Z,6.02
2018-11-20T04:16:59.309Z,5.89
2018-11-20T04:18:09.619Z,5.91
2018-11-20T04:19:19.165Z,6.03
2018-11-20T04:20:29.223Z,6.06
2018-11-20T04:21:39.025Z,6.07
2018-11-20T04:22:48.817Z,6.07
2018-11-20T04:23:58.893Z,6.02
2018-11-20T04:25:08.442Z,6.07
2018-11-20T04:26:18.028Z,6.09
2018-11-20T04:27:28.094Z,6.02
2018-11-20T04:28:37.899Z,6.13
2018-11-20T04:29:47.760Z,6.06
2018-11-20T04:30:57.043Z,6.03
2018-11-20T04:32:07.247Z,6.15
2018-11-20T04:33:17.355Z,6.02
2018-11-20T04:34:26.902Z,6.06
2018-11-20T04:35:36.702Z,6.1
2018-11-20T04:36:46.494Z,6.1
2018-11-20T04:37:56.038Z,6.03
2018-11-20T04:39:06.083Z,6.03
2018-11-20T04:40:15.870Z,6.06
2018-11-20T04:41:26.285Z,6.03
2018-11-20T04:42:36.094Z,6.02
2018-11-20T04:43:45.936Z,6.03
2018-11-20T04:44:55.259Z,5.99
2018-11-20T04:46:07.718Z,5.98
2018-11-20T04:47:17.513Z,6.07
2018-11-20T04:48:27.569Z,6.06
2018-11-20T04:49:37.152Z,6.03
2018-11-20T04:50:47.391Z,6.1
2018-11-20T04:51:57.481Z,6.14
2018-11-20T04:53:07.278Z,6.06
2018-11-20T04:54:17.067Z,6.09
2018-11-20T04:55:27.143Z,6.1
2018-11-20T04:56:37.248Z,6.24
2018-11-20T04:57:47.403Z,6.09
2018-11-20T04:58:57.567Z,6.09
2018-11-20T05:00:07.633Z,6.18
2018-11-20T05:01:17.185Z,6.1
2018-11-20T05:02:27.247Z,6.1
2018-11-20T05:03:37.323Z,6.13
2018-11-20T05:04:46.873Z,6.1
2018-11-20T05:05:56.409Z,6.15
2018-11-20T05:07:05.955Z,6.1
2018-11-20T05:08:15.511Z,6.18
2018-11-20T05:09:25.572Z,6.1
2018-11-20T05:10:35.105Z,6.15
2018-11-20T05:11:45.187Z,6.18
2018-11-20T05:12:55.242Z,6.14
2018-11-20T05:14:05.182Z,6.15
2018-11-20T05:15:14.997Z,6.17
2018-11-20T05:16:24.533Z,6.07
2018-11-20T05:17:34.321Z,6.24
2018-11-20T05:18:44.374Z,6.14
2018-11-20T05:19:54.429Z,6.17
2018-11-20T05:21:04.230Z,6.06
2018-11-20T05:22:13.777Z,6.17
2018-11-20T05:23:23.854Z,6.15
2018-11-20T05:24:33.916Z,6.17
2018-11-20T05:25:43.831Z,6.18
2018-11-20T05:26:53.374Z,6.24
2018-11-20T05:28:03.514Z,6.29
2018-11-20T05:29:13.477Z,6.34
2018-11-20T05:30:23.330Z,6.28
2018-11-20T05:31:33.481Z,6.24
2018-11-20T05:32:43.573Z,6.24
2018-11-20T05:33:53.395Z,6.14
2018-11-20T05:35:05.461Z,6.21
2018-11-20T05:36:15.004Z,6.21
2018-11-20T05:37:25.058Z,6.21
2018-11-20T05:38:35.123Z,6.28
2018-11-20T05:39:45.183Z,6.26
2018-11-20T05:40:55.271Z,6.29
2018-11-20T05:42:04.908Z,6.18
2018-11-20T05:43:14.985Z,6.21
2018-11-20T05:44:24.775Z,6.18
2018-11-20T05:45:34.844Z,6.2
2018-11-20T05:46:44.774Z,6.21
2018-11-20T05:47:55.236Z,6.2
2018-11-20T05:49:06.019Z,6.25
2018-11-20T05:50:15.859Z,6.24
2018-11-20T05:51:25.650Z,6.31
2018-11-20T05:52:35.718Z,6.33
2018-11-20T05:53:45.510Z,6.29
2018-11-20T05:54:55.560Z,6.28
2018-11-20T05:56:04.936Z,6.28
2018-11-20T05:57:14.739Z,6.28
2018-11-20T05:58:24.528Z,6.26
2018-11-20T05:59:34.607Z,6.29
2018-11-20T06:00:44.406Z,6.29
2018-11-20T06:01:54.193Z,6.28
2018-11-20T06:03:03.984Z,6.33
2018-11-20T06:04:13.783Z,6.42
2018-11-20T06:05:23.618Z,6.42
2018-11-20T06:06:33.402Z,6.34
2018-11-20T06:07:42.961Z,6.4
2018-11-20T06:08:52.492Z,6.44
2018-11-20T06:10:03.382Z,6.39
2018-11-20T06:11:13.177Z,6.39
2018-11-20T06:12:23.012Z,6.46
2018-11-20T06:13:33.169Z,6.39
2018-11-20T06:14:43.261Z,6.39
2018-11-20T06:15:53.322Z,6.46
2018-11-20T06:17:02.598Z,6.33
2018-11-20T06:18:12.645Z,6.42
2018-11-20T06:19:22.558Z,6.47
2018-11-20T06:20:32.615Z,6.46
2018-11-20T06:21:42.449Z,6.42
2018-11-20T06:22:52.251Z,6.4
2018-11-20T06:24:02.055Z,6.47
2018-11-20T06:25:12.117Z,6.46
2018-11-20T06:26:21.938Z,6.44
2018-11-20T06:27:31.725Z,6.47
2018-11-20T06:28:42.116Z,6.52
2018-11-20T06:29:52.138Z,6.49
2018-11-20T06:31:01.987Z,6.54
2018-11-20T06:32:11.806Z,6.54
2018-11-20T06:33:21.872Z,6.6
2018-11-20T06:34:32.009Z,6.55
2018-11-20T06:35:41.966Z,6.6
2018-11-20T06:36:51.790Z,6.55
2018-11-20T06:38:01.852Z,6.62
2018-11-20T06:39:11.677Z,6.55
2018-11-20T06:40:20.955Z,6.58
2018-11-20T06:41:31.167Z,6.57
2018-11-20T06:42:41.222Z,6.55
2018-11-20T06:43:51.009Z,6.55
2018-11-20T06:45:00.549Z,6.57
2018-11-20T06:46:09.821Z,6.62
2018-11-20T06:47:19.967Z,6.64
2018-11-20T06:48:29.950Z,6.7
2018-11-20T06:49:40.007Z,6.64
2018-11-20T06:50:49.557Z,6.73
2018-11-20T06:51:59.640Z,6.76
2018-11-20T06:53:09.774Z,6.78
2018-11-20T06:54:20.364Z,6.67
2018-11-20T06:55:30.179Z,6.79
2018-11-20T06:56:40.238Z,6.8
2018-11-20T06:57:50.301Z,6.73
2018-11-20T06:59:00.097Z,6.8
2018-11-20T07:00:09.777Z,6.78
2018-11-20T07:01:19.899Z,6.83
2018-11-20T07:02:30.193Z,6.8
2018-11-20T07:03:40.275Z,6.8
2018-11-20T07:04:50.078Z,6.79
2018-11-20T07:05:59.856Z,6.85
2018-11-20T07:07:10.209Z,6.83
2018-11-20T07:08:20.384Z,6.95
2018-11-20T07:09:30.688Z,6.98
2018-11-20T07:10:40.505Z,6.91
2018-11-20T07:11:50.409Z,6.91
2018-11-20T07:13:00.506Z,6.93
2018-11-20T07:14:10.297Z,6.94
2018-11-20T07:15:20.423Z,7
2018-11-20T07:16:31.350Z,7.01
2018-11-20T07:17:41.664Z,6.98
2018-11-20T07:18:51.710Z,6.88
2018-11-20T07:20:01.256Z,6.91
2018-11-20T07:21:11.328Z,6.95
2018-11-20T07:22:20.971Z,6.95
2018-11-20T07:23:31.178Z,6.98
2018-11-20T07:24:40.787Z,7.03
2018-11-20T07:25:50.747Z,7.08
2018-11-20T07:27:00.554Z,7.11
2018-11-20T07:28:10.619Z,7.09
2018-11-20T07:29:20.733Z,7.19
2018-11-20T07:30:31.169Z,7.12
2018-11-20T07:31:41.567Z,7.13
2018-11-20T07:32:51.480Z,7.12
2018-11-20T07:34:01.277Z,7.11
2018-11-20T07:35:11.128Z,7.15
2018-11-20T07:36:21.601Z,7.12
2018-11-20T07:37:31.769Z,7.18
2018-11-20T07:38:41.570Z,7.16
2018-11-20T07:39:51.378Z,7.19
2018-11-20T07:41:00.908Z,7.16
2018-11-20T07:42:10.710Z,7.18
2018-11-20T07:43:21.216Z,7.16
2018-11-20T07:44:30.885Z,7.19
2018-11-20T07:45:40.944Z,7.18
2018-11-20T07:46:50.817Z,7.22
2018-11-20T07:48:01.628Z,7.19
2018-11-20T07:49:11.683Z,7.26
2018-11-20T07:50:21.496Z,7.21
2018-11-20T07:51:31.406Z,7.29
2018-11-20T07:52:41.601Z,7.19
2018-11-20T07:53:51.676Z,7.26
2018-11-20T07:55:02.420Z,7.22
2018-11-20T07:56:12.996Z,7.26
2018-11-20T07:57:23.603Z,7.26
2018-11-20T07:58:33.402Z,7.33
2018-11-20T07:59:43.477Z,7.39
2018-11-20T08:00:53.535Z,7.34
2018-11-20T08:02:03.378Z,7.37
2018-11-20T08:03:13.768Z,7.47
2018-11-20T08:04:23.863Z,7.41
2018-11-20T08:05:33.958Z,7.48
2018-11-20T08:06:44.032Z,7.48
2018-11-20T08:07:54.091Z,7.55
2018-11-20T08:09:06.005Z,7.51
2018-11-20T08:10:15.636Z,7.59
2018-11-20T08:11:25.960Z,7.64
2018-11-20T08:12:36.031Z,7.75
2018-11-20T08:13:45.539Z,7.88
2018-11-20T08:14:55.551Z,7.88
2018-11-20T08:16:07.531Z,8.03
2018-11-20T08:17:17.191Z,7.96
2018-11-20T08:18:26.780Z,7.99
2018-11-20T08:19:36.583Z,7.98
2018-11-20T08:20:46.658Z,8.01
2018-11-20T08:21:56.222Z,7.96
2018-11-20T08:23:07.209Z,7.93
2018-11-20T08:24:17.334Z,7.98
2018-11-20T08:25:27.547Z,7.98
2018-11-20T08:26:38.187Z,7.96
2018-11-20T08:27:48.658Z,7.99
2018-11-20T08:28:58.624Z,8.01
2018-11-20T08:30:08.731Z,8.06
2018-11-20T08:31:18.829Z,8.04
2018-11-20T08:32:28.120Z,8.01
2018-11-20T08:33:37.822Z,7.89
2018-11-20T08:34:47.952Z,7.98
2018-11-20T08:35:57.816Z,7.91
2018-11-20T08:37:07.272Z,7.86
2018-11-20T08:38:17.482Z,7.82
2018-11-20T08:39:27.278Z,7.77
2018-11-20T08:40:37.095Z,7.82
2018-11-20T08:41:46.628Z,7.86
2018-11-20T08:42:56.440Z,7.89
2018-11-20T08:44:06.859Z,7.83
2018-11-20T08:45:16.974Z,7.82
2018-11-20T08:46:27.045Z,7.82
2018-11-20T08:47:37.134Z,7.77
2018-11-20T08:48:47.097Z,7.71
2018-11-20T08:49:57.154Z,7.71
2018-11-20T08:51:06.694Z,7.68
2018-11-20T08:52:16.239Z,7.64
2018-11-20T08:53:25.811Z,7.61
2018-11-20T08:54:35.707Z,7.56
2018-11-20T08:55:45.777Z,7.59
2018-11-20T08:56:55.853Z,7.54
2018-11-20T08:58:09.422Z,7.51
2018-11-20T08:59:19.633Z,7.56
2018-11-20T09:00:29.447Z,7.54
2018-11-20T09:01:39.528Z,7.55
2018-11-20T09:02:49.759Z,7.48
2018-11-20T09:03:59.442Z,7.48
2018-11-20T09:05:08.974Z,7.48
2018-11-20T09:06:19.058Z,7.44
2018-11-20T09:07:29.130Z,7.52
2018-11-20T09:08:39.208Z,7.45
2018-11-20T09:09:49.345Z,7.41
2018-11-20T09:10:59.259Z,7.47
2018-11-20T09:12:09.375Z,7.47
2018-11-20T09:13:19.434Z,7.48
2018-11-20T09:14:29.244Z,7.47
2018-11-20T09:15:38.813Z,7.54
2018-11-20T09:16:48.676Z,7.48
2018-11-20T09:17:59.157Z,7.48
2018-11-20T09:19:09.118Z,7.54
2018-11-20T09:20:19.461Z,7.48
2018-11-20T09:21:30.184Z,7.55
2018-11-20T09:22:40.307Z,7.45
2018-11-20T09:23:49.840Z,7.33
2018-11-20T09:24:59.662Z,7.37
2018-11-20T09:26:09.463Z,7.34
2018-11-20T09:27:19.619Z,7.33
2018-11-20T09:28:29.422Z,7.19
2018-11-20T09:29:39.230Z,7.23
2018-11-20T09:30:49.314Z,7.21
2018-11-20T09:31:59.412Z,7.16
2018-11-20T09:33:08.944Z,7.04
2018-11-20T09:34:18.876Z,7.05
2018-11-20T09:35:30.201Z,7.08
2018-11-20T09:36:40.787Z,7.01
2018-11-20T09:37:50.641Z,7.05
2018-11-20T09:39:03.742Z,7.08
2018-11-20T09:40:13.287Z,7.08
2018-11-20T09:41:23.090Z,7.01
2018-11-20T09:42:32.891Z,7.03
2018-11-20T09:43:42.954Z,7.03
2018-11-20T09:44:52.806Z,7.03
2018-11-20T09:46:02.756Z,7.11
2018-11-20T09:47:12.826Z,7.08
2018-11-20T09:48:22.928Z,7.05
2018-11-20T09:49:32.743Z,6.98
2018-11-20T09:50:42.824Z,7.01
2018-11-20T09:51:52.368Z,6.95
2018-11-20T09:53:02.320Z,6.98
2018-11-20T09:54:12.565Z,7.04
2018-11-20T09:55:22.805Z,7.04
2018-11-20T09:56:32.659Z,7
2018-11-20T09:57:42.975Z,6.95
2018-11-20T09:58:52.538Z,6.97
2018-11-20T10:00:01.639Z,6.85
2018-11-20T10:01:11.639Z,6.95
2018-11-20T10:02:21.738Z,6.95
2018-11-20T10:03:31.852Z,6.98
2018-11-20T10:04:41.871Z,6.91
2018-11-20T10:05:51.677Z,6.94
2018-11-20T10:07:02.606Z,6.8
2018-11-20T10:08:13.092Z,6.86
2018-11-20T10:09:23.182Z,6.82
2018-11-20T10:10:33.318Z,6.79
2018-11-20T10:11:43.422Z,6.73
2018-11-20T10:12:53.236Z,6.73
2018-11-20T10:14:03.659Z,6.67
2018-11-20T10:15:14.514Z,6.68
2018-11-20T10:16:24.606Z,6.68
2018-11-20T10:17:34.421Z,6.6
2018-11-20T10:18:44.487Z,6.54
2018-11-20T10:19:54.346Z,6.44
2018-11-20T10:21:04.420Z,6.51
2018-11-20T10:22:14.946Z,6.52
2018-11-20T10:23:25.240Z,6.54
2018-11-20T10:24:34.916Z,6.37
2018-11-20T10:25:45.973Z,6.44
2018-11-20T10:26:55.937Z,6.44
2018-11-20T10:28:05.866Z,6.46
2018-11-20T10:29:15.932Z,6.36
2018-11-20T10:30:25.726Z,6.44
2018-11-20T10:31:35.846Z,6.34
2018-11-20T10:32:45.400Z,6.39
2018-11-20T10:33:55.499Z,6.34
2018-11-20T10:35:06.034Z,6.37
2018-11-20T10:36:15.581Z,6.34
2018-11-20T10:37:25.773Z,6.34
2018-11-20T10:38:35.586Z,6.33
2018-11-20T10:39:45.648Z,6.37
2018-11-20T10:40:55.204Z,6.31
2018-11-20T10:42:05.452Z,6.33
2018-11-20T10:43:15.683Z,6.33
2018-11-20T10:44:25.503Z,6.37
2018-11-20T10:45:35.695Z,6.25
2018-11-20T10:46:46.514Z,6.29
2018-11-20T10:47:56.193Z,6.2
2018-11-20T10:49:08.012Z,6.25
2018-11-20T10:50:18.098Z,6.18
2018-11-20T10:51:27.119Z,6.26
2018-11-20T10:52:37.155Z,6.18
2018-11-20T10:53:47.749Z,6.18
2018-11-20T10:54:57.083Z,6.18
2018-11-20T10:56:07.142Z,6.2
2018-11-20T10:57:17.058Z,6.25
2018-11-20T10:58:26.877Z,6.06
2018-11-20T10:59:37.173Z,6.15
2018-11-20T11:00:47.522Z,6.15
2018-11-20T11:01:57.341Z,6.15
2018-11-20T11:03:07.403Z,6.14
2018-11-20T11:04:17.424Z,6.06
2018-11-20T11:05:27.406Z,6.15
2018-11-20T11:06:37.394Z,6.15
2018-11-20T11:07:48.175Z,6.14
2018-11-20T11:08:59.097Z,6.1
2018-11-20T11:10:08.968Z,6.06
2018-11-20T11:11:18.548Z,6.02
2018-11-20T11:12:32.154Z,5.91
2018-11-20T11:13:50.126Z,5.85
2018-11-20T11:15:06.639Z,5.89
2018-11-20T11:16:20.673Z,5.84
2018-11-20T11:17:33.828Z,5.85
2018-11-20T11:18:47.555Z,5.72
2018-11-20T11:20:01.848Z,5.84
2018-11-20T11:21:15.698Z,5.77
2018-11-20T11:22:29.251Z,5.7
2018-11-20T11:23:41.582Z,5.72
2018-11-20T11:24:54.276Z,5.69
2018-11-20T11:26:07.283Z,5.64
2018-11-20T11:27:22.063Z,5.64
2018-11-20T11:28:36.724Z,5.59
2018-11-20T11:29:50.077Z,5.64
2018-11-20T11:31:01.948Z,5.55
2018-11-20T11:32:12.393Z,5.59
2018-11-20T11:33:32.037Z,5.59
2018-11-20T11:34:43.261Z,5.57
2018-11-20T11:35:53.291Z,5.52
2018-11-20T11:37:03.157Z,5.59
2018-11-20T11:38:12.766Z,5.6
2018-11-20T11:39:22.918Z,5.51
2018-11-20T11:40:32.808Z,5.54
2018-11-20T11:41:42.905Z,5.49
2018-11-20T11:42:52.761Z,5.48
2018-11-20T11:44:02.860Z,5.49
2018-11-20T11:45:13.097Z,5.37
2018-11-20T11:46:23.014Z,5.34
2018-11-20T11:47:32.565Z,5.3
2018-11-20T11:48:42.666Z,5.41
2018-11-20T11:49:52.748Z,5.37
2018-11-20T11:51:02.561Z,5.42
2018-11-20T11:52:12.614Z,5.37
2018-11-20T11:53:22.537Z,5.36
2018-11-20T11:54:32.343Z,5.3
2018-11-20T11:55:42.445Z,5.21
2018-11-20T11:56:52.277Z,5.26
2018-11-20T11:58:02.344Z,5.23
2018-11-20T11:59:12.147Z,5.13
2018-11-20T12:00:22.236Z,5.18
2018-11-20T12:03:49.739Z,5.2
2018-11-20T12:04:59.819Z,5.02
2018-11-20T12:06:09.885Z,5.21
2018-11-20T12:07:19.422Z,5.2
2018-11-20T12:08:29.147Z,5.26
2018-11-20T12:09:39.245Z,5.26
2018-11-20T12:10:48.536Z,5.23
2018-11-20T12:11:58.096Z,5.26
2018-11-20T12:13:08.208Z,5.23
2018-11-20T12:14:17.747Z,5.27
2018-11-20T12:15:28.454Z,5.28
2018-11-20T12:16:38.515Z,5.27
2018-11-20T12:17:48.337Z,5.24
2018-11-20T12:19:00.927Z,5.3
2018-11-20T12:20:10.866Z,5.26
2018-11-20T12:21:20.723Z,5.24
2018-11-20T12:22:30.546Z,5.24
2018-11-20T12:23:40.347Z,5.21
2018-11-20T12:24:52.064Z,5.27
2018-11-20T12:26:01.928Z,5.27
2018-11-20T12:27:12.340Z,5.24
2018-11-20T12:28:21.905Z,5.24
2018-11-20T12:29:37.361Z,5.24
2018-11-20T12:30:48.588Z,5.28
2018-11-20T12:31:59.015Z,5.3
2018-11-20T12:33:09.133Z,5.28
2018-11-20T12:34:21.415Z,5.33
2018-11-20T12:35:38.521Z,5.36
2018-11-20T12:36:48.957Z,5.36
2018-11-20T12:37:59.314Z,5.44
2018-11-20T12:39:11.215Z,5.39
2018-11-20T12:40:21.710Z,5.52
2018-11-20T12:41:34.868Z,5.48
2018-11-20T12:42:46.454Z,5.45
2018-11-20T12:43:58.973Z,5.59
2018-11-20T12:45:13.507Z,5.52
2018-11-20T12:46:25.738Z,5.57
2018-11-20T12:47:37.357Z,5.52
2018-11-20T12:48:50.475Z,5.54
2018-11-20T12:50:03.150Z,5.49
2018-11-20T12:51:15.611Z,5.46
2018-11-20T12:52:28.888Z,5.51
2018-11-20T12:53:43.025Z,5.46
2018-11-20T12:54:55.012Z,5.46
2018-11-20T12:56:04.694Z,5.49
2018-11-20T12:57:16.419Z,5.44
2018-11-20T12:58:26.217Z,5.49
2018-11-20T12:59:37.546Z,5.52
2018-11-20T13:00:47.151Z,5.46
2018-11-20T13:01:57.501Z,5.59
2018-11-20T13:03:07.534Z,5.59
2018-11-20T13:04:17.354Z,5.57
2018-11-20T13:05:28.621Z,5.54
2018-11-20T13:06:38.269Z,5.54
2018-11-20T13:07:48.263Z,5.62
2018-11-20T13:08:58.204Z,5.7
2018-11-20T13:10:10.454Z,5.62
2018-11-20T13:11:20.295Z,5.6
2018-11-20T13:12:29.952Z,5.67
2018-11-20T13:13:41.594Z,5.67
2018-11-20T13:14:56.583Z,5.64
2018-11-20T13:16:06.705Z,5.77
2018-11-20T13:17:16.163Z,5.75
2018-11-20T13:18:26.234Z,5.7
2018-11-20T13:19:38.459Z,5.69
2018-11-20T13:20:50.205Z,5.66
2018-11-20T13:22:02.229Z,5.64
2018-11-20T13:23:12.306Z,5.62
2018-11-20T13:24:22.569Z,5.67
2018-11-20T13:25:32.631Z,5.54
2018-11-20T13:26:42.519Z,5.59
2018-11-20T13:27:52.599Z,5.6
2018-11-20T13:29:05.337Z,5.59
2018-11-20T13:30:15.167Z,5.62
2018-11-20T13:31:25.595Z,5.6
2018-11-20T13:32:35.636Z,5.52
2018-11-20T13:33:49.670Z,5.57
2018-11-20T13:34:59.806Z,5.57
2018-11-20T13:36:10.083Z,5.57
2018-11-20T13:37:20.708Z,5.6
2018-11-20T13:38:35.212Z,5.55
2018-11-20T13:39:45.232Z,5.62
2018-11-20T13:40:57.256Z,5.63
2018-11-20T13:42:07.323Z,5.64
2018-11-20T13:43:17.415Z,5.64
2018-11-20T13:44:27.269Z,5.66
2018-11-20T13:45:37.413Z,5.66
2018-11-20T13:46:49.126Z,5.7
2018-11-20T13:47:59.187Z,5.7
2018-11-20T13:49:09.399Z,5.66
2018-11-20T13:50:19.479Z,5.72
2018-11-20T13:51:29.403Z,5.73
2018-11-20T13:52:39.613Z,5.75
2018-11-20T13:53:49.673Z,5.7
2018-11-20T13:54:59.627Z,5.7
2018-11-20T13:56:09.754Z,5.7
2018-11-20T13:57:19.043Z,5.6
2018-11-20T13:58:28.862Z,5.6
2018-11-20T13:59:38.994Z,5.7
2018-11-20T14:00:48.547Z,5.59
2018-11-20T14:01:58.735Z,5.57
2018-11-20T14:03:08.805Z,5.57
2018-11-20T14:04:18.620Z,5.62
2018-11-20T14:05:28.692Z,5.6
2018-11-20T14:06:38.847Z,5.54
2018-11-20T14:07:48.667Z,5.57
2018-11-20T14:08:59.021Z,5.57
2018-11-20T14:10:10.620Z,5.57
2018-11-20T14:11:20.450Z,5.51
2018-11-20T14:12:30.249Z,5.6
2018-11-20T14:13:40.190Z,5.54
2018-11-20T14:14:50.267Z,5.54
2018-11-20T14:16:00.079Z,5.57
2018-11-20T14:17:09.906Z,5.62
2018-11-20T14:18:19.791Z,5.6
2018-11-20T14:19:29.279Z,5.64
2018-11-20T14:20:39.087Z,5.64
2018-11-20T14:21:48.631Z,5.6
2018-11-20T14:22:58.177Z,5.54
2018-11-20T14:24:08.019Z,5.62
2018-11-20T14:25:17.849Z,5.6
2018-11-20T14:26:27.922Z,5.57
2018-11-20T14:27:37.802Z,5.57
2018-11-20T14:28:47.900Z,5.63
2018-11-20T14:29:57.988Z,5.6
2018-11-20T14:31:07.841Z,5.54
2018-11-20T14:32:17.907Z,5.57
2018-11-20T14:33:27.987Z,5.57
2018-11-20T14:34:38.098Z,5.52
2018-11-20T14:35:47.943Z,5.62
2018-11-20T14:36:57.761Z,5.59
2018-11-20T14:38:07.571Z,5.6
2018-11-20T14:47:44.183Z,5.51
2018-11-20T14:48:54.056Z,5.55
2018-11-20T14:50:06.539Z,5.52
2018-11-20T14:51:16.628Z,5.49
2018-11-20T14:52:25.924Z,5.45
2018-11-20T14:53:35.466Z,5.54
2018-11-20T14:54:45.275Z,5.49
2018-11-20T14:55:55.344Z,5.44
2018-11-20T14:57:06.268Z,5.46
2018-11-20T14:58:16.346Z,5.46
2018-11-20T14:59:26.224Z,5.46
2018-11-20T15:00:36.311Z,5.44
2018-11-20T15:01:46.377Z,5.49
2018-11-20T15:02:55.922Z,5.49
2018-11-20T15:04:05.725Z,5.49
2018-11-20T15:05:15.651Z,5.46
2018-11-20T15:06:24.929Z,5.45
2018-11-20T15:07:34.756Z,5.48
2018-11-20T15:08:44.570Z,5.44
2018-11-20T15:09:54.743Z,5.49
2018-11-20T15:11:04.804Z,5.39
2018-11-20T15:12:14.873Z,5.49
2018-11-20T15:13:24.692Z,5.46
2018-11-20T15:14:34.750Z,5.45
2018-11-20T15:15:44.806Z,5.44
2018-11-20T15:16:54.628Z,5.42
2018-11-20T15:18:04.686Z,5.41
2018-11-20T15:19:14.768Z,5.48
2018-11-20T15:20:24.319Z,5.52
2018-11-20T15:21:34.389Z,5.48
2018-11-20T15:22:44.252Z,5.42
2018-11-20T15:23:54.057Z,5.41
2018-11-20T15:25:04.490Z,5.48
2018-11-20T15:26:14.316Z,5.49
2018-11-20T15:27:24.413Z,5.49
2018-11-20T15:28:34.548Z,5.46
2018-11-20T15:29:44.349Z,5.52
2018-11-20T15:30:53.894Z,5.45
2018-11-20T15:32:03.707Z,5.46
2018-11-20T15:33:13.247Z,5.46
2018-11-20T15:34:22.656Z,5.49
2018-11-20T15:35:32.457Z,5.49
2018-11-20T15:36:42.012Z,5.54
2018-11-20T15:37:52.095Z,5.51
2018-11-20T15:39:01.486Z,5.46
2018-11-20T15:40:10.884Z,5.48
2018-11-20T15:41:20.714Z,5.54
2018-11-20T15:42:30.279Z,5.63
2018-11-20T15:43:40.105Z,5.6
2018-11-20T15:44:49.674Z,5.62
2018-11-20T15:45:59.771Z,5.62
2018-11-20T15:47:09.870Z,5.52
2018-11-20T15:48:19.684Z,5.51
2018-11-20T15:49:34.959Z,5.57
2018-11-20T15:50:45.254Z,5.55
2018-11-20T15:51:55.074Z,5.59
2018-11-20T15:53:04.990Z,5.54
2018-11-20T15:54:14.560Z,5.55
2018-11-20T15:55:24.676Z,5.6
2018-11-20T15:56:33.974Z,5.63
2018-11-20T15:57:44.027Z,5.54
2018-11-20T15:58:53.583Z,5.62
2018-11-20T16:00:03.383Z,5.62
2018-11-20T16:01:13.207Z,5.55
2018-11-20T16:02:30.523Z,5.69
2018-11-20T16:03:40.325Z,5.7
2018-11-20T16:04:49.887Z,5.62
2018-11-20T16:06:01.193Z,5.64
2018-11-20T16:07:10.922Z,5.72
2018-11-20T16:08:21.025Z,5.7
2018-11-20T16:09:30.858Z,5.72
2018-11-20T16:10:40.960Z,5.75
2018-11-20T16:11:50.757Z,5.64
2018-11-20T16:13:00.952Z,5.69
2018-11-20T16:14:11.053Z,5.66
2018-11-20T16:15:20.863Z,5.69
2018-11-20T16:16:30.944Z,5.72
2018-11-20T16:17:40.778Z,5.72
2018-11-20T16:18:50.860Z,5.69
2018-11-20T16:20:00.941Z,5.69